Time;durP1;ratioP1;P1;durP2;ratioP2;P2;SDS_P1;SDS_P2;PMS_P1;PMS_P2;Temp;Humidity;BMP_temperature;BMP_pressure;BME280_temperature;BME280_humidity;BME280_pressure;Samples;Min_cycle;Max_cycle;Signal;HPM_P1;HPM_P2
2022/09/13 00:03:14;;;;;;;4.70;2.93;;;;;;;18.71;57.00;98358.22;7033393;28;20212;-79
2022/09/13 00:06:35;;;;;;;6.20;3.00;;;;;;;18.73;57.02;98347.84;7033209;28;20697;-78
2022/09/13 00:09:57;;;;;;;5.57;3.13;;;;;;;18.80;56.52;98356.59;7032356;28;20228;-79
2022/09/13 00:13:19;;;;;;;3.67;2.70;;;;;;;18.67;57.08;98346.19;7032749;28;20272;-79
2022/09/13 00:16:41;;;;;;;3.27;2.97;;;;;;;18.32;57.14;98301.50;7009366;28;20273;-79
2022/09/13 00:20:04;;;;;;;5.10;3.00;;;;;;;18.82;56.93;98334.47;7003674;28;20732;-79
2022/09/13 00:23:25;;;;;;;4.43;2.93;;;;;;;18.71;56.95;98333.63;7004630;28;20251;-79
2022/09/13 00:26:47;;;;;;;4.60;3.30;;;;;;;18.25;58.42;98350.03;7004581;28;20375;-79
2022/09/13 00:30:11;;;;;;;7.47;3.63;;;;;;;18.01;59.60;98336.00;7003760;28;20341;-79
2022/09/13 00:33:33;;;;;;;3.30;3.00;;;;;;;18.36;58.77;98338.94;7012675;28;20201;-79
2022/09/13 00:36:54;;;;;;;3.40;3.10;;;;;;;18.94;56.07;98338.63;7032526;28;20226;-79
2022/09/13 00:40:16;;;;;;;4.20;3.10;;;;;;;18.90;56.11;98323.84;7031309;28;20342;-79
2022/09/13 00:43:42;;;;;;;4.10;3.70;;;;;;;18.34;57.40;98337.56;7032088;28;20213;-79
2022/09/13 00:47:05;;;;;;;3.43;3.23;;;;;;;17.48;60.53;98338.88;7031569;28;20225;-79
2022/09/13 00:50:31;;;;;;;6.07;3.53;;;;;;;17.41;61.07;98338.28;7030529;28;20233;-79
2022/09/13 00:53:54;;;;;;;4.80;3.60;;;;;;;17.73;60.21;98347.25;7031980;28;20251;-78
2022/09/13 00:57:17;;;;;;;4.60;3.60;;;;;;;17.97;59.89;98347.69;7032088;28;20232;-78
2022/09/13 01:00:39;;;;;;;3.60;3.30;;;;;;;17.68;59.99;98352.66;7030892;28;20291;-79
2022/09/13 01:04:02;;;;;;;4.10;3.03;;;;;;;17.75;59.89;98322.47;7031781;28;20207;-79
2022/09/13 01:07:24;;;;;;;3.70;3.40;;;;;;;18.11;58.97;98329.78;7031042;28;20293;-79
2022/09/13 01:10:46;;;;;;;4.90;3.00;;;;;;;18.32;58.07;98323.34;7025256;28;20225;-78
2022/09/13 01:14:08;;;;;;;4.23;3.40;;;;;;;18.04;58.49;98310.09;7031450;28;20205;-78
2022/09/13 01:17:30;;;;;;;3.97;3.67;;;;;;;17.83;59.46;98320.06;7030930;28;20318;-79
2022/09/13 01:21:15;;;;;;;4.30;3.40;;;;;;;17.86;59.55;98324.19;7030630;28;20286;-79
2022/09/13 01:25:15;;;;;;;3.37;3.07;;;;;;;17.96;59.22;98321.50;7030880;28;20196;-79
2022/09/13 01:28:58;;;;;;;4.73;3.80;;;;;;;18.22;58.48;98324.09;7030188;28;20232;-79
2022/09/13 01:32:25;;;;;;;5.90;4.43;;;;;;;18.48;57.59;98322.34;7020653;28;20277;-78
2022/09/13 01:35:57;;;;;;;3.40;3.10;;;;;;;18.39;57.65;98315.75;7030987;28;20230;-79
2022/09/13 01:39:28;;;;;;;4.17;3.03;;;;;;;17.88;58.23;98273.72;7029821;28;20240;-78
2022/09/13 01:43:04;;;;;;;3.73;3.27;;;;;;;18.35;57.28;98320.09;7030260;28;20648;-78
2022/09/13 01:46:29;;;;;;;4.07;3.47;;;;;;;17.71;59.20;98324.06;7031086;28;20315;-79
2022/09/13 01:49:59;;;;;;;6.27;3.57;;;;;;;17.48;60.28;98322.53;7032218;28;20699;-78
2022/09/13 01:53:25;;;;;;;4.13;3.43;;;;;;;17.63;60.00;98328.09;7034040;28;20839;-79
2022/09/13 01:56:53;;;;;;;3.73;3.43;;;;;;;17.58;59.55;98317.13;7030459;28;20791;-78
2022/09/13 02:00:17;;;;;;;4.77;3.47;;;;;;;17.76;59.33;98318.66;7029773;28;20255;-79
2022/09/13 02:03:43;;;;;;;3.70;3.40;;;;;;;17.94;59.14;98320.94;7030072;28;20236;-79
2022/09/13 02:07:13;;;;;;;4.03;3.57;;;;;;;17.74;59.65;98324.34;7030323;28;20314;-78
2022/09/13 02:10:38;;;;;;;5.40;3.20;;;;;;;17.90;59.34;98328.00;7029440;28;20223;-78
2022/09/13 02:14:04;;;;;;;4.83;3.40;;;;;;;17.99;58.89;98319.06;7030515;28;20303;-78
2022/09/13 02:17:28;;;;;;;3.60;3.27;;;;;;;18.12;58.85;98328.69;7028973;28;20221;-77
2022/09/13 02:20:52;;;;;;;3.60;3.30;;;;;;;18.03;58.34;98331.09;7030139;28;20266;-79
2022/09/13 02:24:17;;;;;;;4.40;4.00;;;;;;;18.03;58.31;98332.97;7037683;28;20212;-80
2022/09/13 02:27:40;;;;;;;4.40;3.47;;;;;;;17.93;58.16;98295.56;7040836;28;20717;-79
2022/09/13 02:31:04;;;;;;;3.70;3.40;;;;;;;18.19;58.16;98319.19;7030179;28;20225;-79
2022/09/13 02:34:29;;;;;;;4.03;3.10;;;;;;;18.21;58.00;98332.56;7030511;28;20674;-79
2022/09/13 02:37:55;;;;;;;3.60;3.30;;;;;;;17.98;58.38;98324.78;7029740;28;20288;-79
2022/09/13 02:41:26;;;;;;;4.63;3.60;;;;;;;17.89;58.86;98340.00;7030046;28;20189;-79
2022/09/13 02:44:50;;;;;;;5.80;3.53;;;;;;;17.88;58.73;98328.25;7029771;28;20427;-79
2022/09/13 02:48:21;;;;;;;3.73;3.43;;;;;;;18.12;58.26;98332.25;7033222;28;20767;-80
2022/09/13 02:51:45;;;;;;;6.30;3.43;;;;;;;17.90;58.70;98330.72;7030717;28;20254;-80
2022/09/13 02:55:14;;;;;;;3.80;3.50;;;;;;;17.56;59.22;98326.66;7045287;28;20211;-80
2022/09/13 02:58:42;;;;;;;3.87;3.50;;;;;;;17.94;58.76;98329.13;7035511;28;20217;-79
2022/09/13 03:02:06;;;;;;;4.87;3.50;;;;;;;17.97;58.32;98312.22;7030553;28;20301;-78
2022/09/13 03:05:28;;;;;;;3.57;3.27;;;;;;;18.06;58.33;98329.75;7029404;28;20349;-79
2022/09/13 03:08:49;;;;;;;3.97;3.40;;;;;;;17.96;57.80;98326.94;7023836;28;20682;-79
2022/09/13 03:12:24;;;;;;;3.73;3.43;;;;;;;17.53;59.21;98316.28;7027935;28;20704;-79
2022/09/13 03:15:56;;;;;;;4.13;3.73;;;;;;;17.31;59.77;98312.81;7035012;28;20244;-79
2022/09/13 03:19:28;;;;;;;3.93;3.53;;;;;;;17.38;59.96;98310.72;7034222;28;20215;-79
2022/09/13 03:23:10;;;;;;;4.07;3.47;;;;;;;17.85;59.09;98322.50;7028885;28;20183;-79
2022/09/13 03:26:46;;;;;;;3.30;3.10;;;;;;;18.00;58.17;98311.69;7041587;28;20223;-79
2022/09/13 03:30:09;;;;;;;9.67;3.90;;;;;;;16.89;60.52;98320.88;7030728;28;20217;-79
2022/09/13 03:33:40;;;;;;;5.30;3.70;;;;;;;17.51;59.87;98304.84;7034700;28;20209;-80
2022/09/13 03:37:06;;;;;;;3.97;3.53;;;;;;;17.36;60.34;98300.06;7030826;28;20234;-79
2022/09/13 03:40:35;;;;;;;3.80;3.50;;;;;;;17.34;60.67;98293.22;7031046;28;20215;-79
2022/09/13 03:43:59;;;;;;;3.70;3.40;;;;;;;17.37;60.30;98293.53;7028888;28;20284;-80
2022/09/13 03:47:21;;;;;;;3.30;3.00;;;;;;;17.51;59.96;98296.66;7027839;28;20294;-80
2022/09/13 03:50:45;;;;;;;7.33;3.60;;;;;;;17.34;60.04;98293.22;7027208;28;20320;-79
2022/09/13 03:54:10;;;;;;;4.07;3.53;;;;;;;17.48;59.98;98316.25;7028824;28;20243;-79
2022/09/13 03:57:32;;;;;;;3.97;3.63;;;;;;;17.27;59.86;98287.19;7027712;28;20369;-78
2022/09/13 04:00:53;;;;;;;3.60;3.30;;;;;;;17.79;59.18;98312.66;7028172;28;20298;-79
2022/09/13 04:04:16;;;;;;;3.67;3.40;;;;;;;17.88;58.67;98320.06;7029927;28;20222;-81
2022/09/13 04:07:39;;;;;;;4.30;3.43;;;;;;;17.90;58.24;98308.91;7033195;28;20229;-81
2022/09/13 04:11:00;;;;;;;4.00;3.53;;;;;;;17.75;59.06;98295.19;7033986;28;20310;-81
2022/09/13 04:14:25;;;;;;;5.07;3.40;;;;;;;17.33;59.76;98286.13;7034346;28;20193;-81
2022/09/13 04:17:46;;;;;;;10.80;4.00;;;;;;;17.43;60.03;98286.22;7034072;28;20344;-81
2022/09/13 04:21:08;;;;;;;4.77;3.30;;;;;;;17.79;59.08;98288.09;7036251;28;20599;-80
2022/09/13 04:24:31;;;;;;;5.63;3.27;;;;;;;17.76;58.99;98264.91;7036158;28;20287;-80
2022/09/13 04:27:58;;;;;;;10.30;3.50;;;;;;;17.97;58.77;98282.22;7014943;28;20228;-81
2022/09/13 04:31:20;;;;;;;3.77;3.47;;;;;;;17.91;58.55;98292.28;7007880;28;20235;-80
2022/09/13 04:34:41;;;;;;;3.57;3.27;;;;;;;17.91;58.82;98284.09;7007092;28;20255;-81
2022/09/13 04:38:03;;;;;;;3.50;3.20;;;;;;;17.83;58.56;98267.41;7013824;28;20302;-80
2022/09/13 04:41:26;;;;;;;4.53;3.50;;;;;;;18.07;58.50;98293.19;7026301;28;20264;-81
2022/09/13 04:44:48;;;;;;;5.03;3.17;;;;;;;17.85;59.04;98312.44;7007861;28;20341;-80
2022/09/13 04:48:10;;;;;;;4.00;3.17;;;;;;;17.66;60.14;98313.13;7009125;28;20264;-80
2022/09/13 04:51:31;;;;;;;4.47;3.60;;;;;;;17.93;59.40;98303.75;7007586;28;20249;-80
2022/09/13 04:54:53;;;;;;;3.73;3.20;;;;;;;17.83;60.31;98325.53;7009982;28;20300;-80
2022/09/13 04:58:16;;;;;;;3.43;3.13;;;;;;;18.26;59.58;98324.38;7027877;28;20201;-81
2022/09/13 05:01:38;;;;;;;5.53;3.80;;;;;;;18.16;59.11;98314.25;7028501;28;20213;-80
2022/09/13 05:04:59;;;;;;;5.13;3.60;;;;;;;18.36;58.73;98327.19;7021413;28;20207;-80
2022/09/13 05:08:21;;;;;;;5.20;3.20;;;;;;;18.45;58.22;98323.69;7030811;28;20829;-80
2022/09/13 05:11:43;;;;;;;4.67;3.23;;;;;;;18.09;58.98;98332.75;7022438;28;20308;-80
2022/09/13 05:15:07;;;;;;;3.60;3.30;;;;;;;18.46;58.44;98329.97;7032424;28;20207;-81
2022/09/13 05:18:30;;;;;;;3.83;3.53;;;;;;;18.31;58.66;98324.41;7032404;28;20316;-81
2022/09/13 05:21:51;;;;;;;3.83;3.53;;;;;;;18.55;58.24;98342.84;7033275;28;20299;-80
2022/09/13 05:25:13;;;;;;;3.90;3.47;;;;;;;18.69;57.89;98335.78;7014182;28;20201;-81
2022/09/13 05:28:35;;;;;;;5.67;3.23;;;;;;;18.75;56.97;98333.91;7004244;28;20237;-80
2022/09/13 05:31:58;;;;;;;4.83;3.17;;;;;;;18.60;58.22;98340.16;7004811;28;20367;-80
2022/09/13 05:35:20;;;;;;;3.63;3.20;;;;;;;18.89;57.20;98346.81;7004373;28;20291;-80
2022/09/13 05:38:41;;;;;;;3.40;3.10;;;;;;;18.70;57.71;98347.56;7024698;28;20205;-80
2022/09/13 05:42:03;;;;;;;5.40;3.70;;;;;;;18.63;58.42;98353.25;7032537;28;20373;-82
2022/09/13 05:45:24;;;;;;;4.20;3.80;;;;;;;18.46;58.88;98344.44;7033210;28;20715;-80
2022/09/13 05:48:48;;;;;;;5.20;3.60;;;;;;;18.46;59.11;98341.72;7028636;28;20292;-81
2022/09/13 05:52:10;;;;;;;3.90;3.50;;;;;;;18.47;59.12;98345.28;7020415;28;20286;-80
2022/09/13 05:55:32;;;;;;;3.87;3.57;;;;;;;18.49;59.86;98360.31;7025677;28;20239;-80
2022/09/13 05:58:54;;;;;;;5.83;3.60;;;;;;;18.72;59.08;98346.19;7031650;28;20198;-80
2022/09/13 06:02:16;;;;;;;3.80;3.33;;;;;;;19.18;58.23;98356.16;7031412;28;20205;-80
2022/09/13 06:05:39;;;;;;;5.20;2.97;;;;;;;19.19;57.62;98322.25;7018307;28;20230;-80
2022/09/13 06:09:00;;;;;;;3.20;3.00;;;;;;;19.59;56.81;98338.72;7006896;28;20258;-80
2022/09/13 06:12:22;;;;;;;3.10;2.67;;;;;;;19.79;56.42;98343.34;7003325;28;20320;-80
2022/09/13 06:15:43;;;;;;;3.40;2.63;;;;;;;19.95;56.45;98344.97;7003732;28;20371;-79
2022/09/13 06:19:05;;;;;;;3.07;2.87;;;;;;;20.31;55.58;98352.03;7002865;28;20278;-80
2022/09/13 06:22:32;;;;;;;3.27;2.80;;;;;;;20.34;55.97;98360.50;7002451;28;20209;-79
2022/09/13 06:26:00;;;;;;;3.20;2.90;;;;;;;20.21;56.76;98363.84;7005842;28;20309;-80
2022/09/13 06:29:21;;;;;;;4.20;2.80;;;;;;;20.69;55.31;98359.59;7002417;28;20261;-79
2022/09/13 06:32:43;;;;;;;3.27;3.03;;;;;;;20.93;54.76;98371.56;7006452;28;20230;-79
2022/09/13 06:36:06;;;;;;;4.40;2.60;;;;;;;21.04;54.69;98365.72;7032570;28;20700;-80
2022/09/13 06:39:30;;;;;;;3.20;2.90;;;;;;;21.26;53.84;98360.66;7030544;28;20357;-79
2022/09/13 06:42:52;;;;;;;2.67;2.47;;;;;;;21.41;52.70;98358.63;7015807;28;20205;-79
2022/09/13 06:46:15;;;;;;;2.83;2.50;;;;;;;21.20;53.24;98332.44;7003750;28;20253;-79
2022/09/13 06:49:36;;;;;;;2.87;2.30;;;;;;;21.25;53.45;98331.63;7006536;28;20252;-80
2022/09/13 06:52:58;;;;;;;3.10;2.67;;;;;;;21.34;53.41;98344.44;7008740;28;20222;-79
2022/09/13 06:56:22;;;;;;;3.40;2.50;;;;;;;21.83;52.96;98344.34;7002776;28;20313;-78
2022/09/13 06:59:43;;;;;;;2.60;2.40;;;;;;;22.27;51.50;98351.31;7019740;28;20373;-80
2022/09/13 07:03:05;;;;;;;2.50;2.30;;;;;;;22.57;50.92;98345.50;7039331;28;20287;-80
2022/09/13 07:06:28;;;;;;;3.37;2.50;;;;;;;22.71;50.20;98329.13;7030722;28;20367;-80
2022/09/13 07:09:50;;;;;;;2.53;2.33;;;;;;;22.61;50.58;98324.56;7028517;28;20687;-80
2022/09/13 07:13:12;;;;;;;3.17;2.47;;;;;;;22.47;52.24;98325.56;7004125;28;20229;-80
2022/09/13 07:16:36;;;;;;;3.27;2.60;;;;;;;22.87;50.13;98314.03;7029668;28;20707;-80
2022/09/13 07:19:57;;;;;;;5.30;2.90;;;;;;;23.79;48.47;98302.97;7003589;28;20248;-80
2022/09/13 07:23:19;;;;;;;3.20;2.57;;;;;;;24.29;47.46;98315.03;7004510;28;20742;-80
2022/09/13 07:26:40;;;;;;;2.70;2.43;;;;;;;23.52;48.83;98327.69;7003599;28;20232;-80
2022/09/13 07:30:04;;;;;;;2.93;2.63;;;;;;;23.03;49.32;98340.22;7003111;28;20273;-79
2022/09/13 07:33:25;;;;;;;3.13;2.83;;;;;;;23.28;50.30;98335.22;7002649;28;20728;-81
2022/09/13 07:36:48;;;;;;;2.87;2.67;;;;;;;23.79;49.22;98311.25;7025053;28;20280;-80
2022/09/13 07:40:10;;;;;;;3.73;2.50;;;;;;;23.89;48.69;98307.56;7007135;28;20292;-80
2022/09/13 07:43:32;;;;;;;5.07;2.23;;;;;;;24.38;47.64;98311.28;7006280;28;20202;-79
2022/09/13 07:46:55;;;;;;;2.43;2.30;;;;;;;24.66;46.94;98310.16;7006684;28;20244;-80
2022/09/13 07:50:17;;;;;;;3.43;2.60;;;;;;;24.27;46.97;98306.28;7005692;28;20199;-80
2022/09/13 07:53:43;;;;;;;2.33;2.03;;;;;;;25.50;44.10;98323.22;7028984;28;20290;-80
2022/09/13 07:57:04;;;;;;;2.50;1.90;;;;;;;25.66;42.56;98298.78;7032423;28;20240;-79
2022/09/13 08:00:26;;;;;;;3.97;1.93;;;;;;;26.04;42.80;98317.44;7006277;28;20293;-81
2022/09/13 08:03:53;;;;;;;6.13;2.20;;;;;;;26.30;41.61;98320.34;7007734;28;20225;-80
2022/09/13 08:07:14;;;;;;;3.37;2.40;;;;;;;26.63;40.98;98310.56;7025726;28;20225;-81
2022/09/13 08:10:36;;;;;;;5.00;2.43;;;;;;;26.17;41.34;98301.88;7021832;28;20272;-80
2022/09/13 08:13:58;;;;;;;2.40;2.20;;;;;;;27.43;40.09;98297.84;7011284;28;20776;-80
2022/09/13 08:17:19;;;;;;;2.87;2.30;;;;;;;27.40;39.41;98292.97;7036490;28;20312;-81
2022/09/13 08:20:42;;;;;;;2.27;1.93;;;;;;;27.46;39.54;98299.97;7032928;28;20294;-80
2022/09/13 08:24:05;;;;;;;3.40;1.90;;;;;;;27.46;39.31;98272.28;7034486;28;20662;-80
2022/09/13 08:27:28;;;;;;;1.90;1.80;;;;;;;27.41;39.00;98289.06;7018861;28;20305;-80
2022/09/13 08:30:49;;;;;;;4.57;2.17;;;;;;;27.57;38.57;98270.00;7016925;28;20636;-80
2022/09/13 08:34:13;;;;;;;2.90;1.70;;;;;;;27.89;38.72;98289.69;7006520;28;20890;-80
2022/09/13 08:37:36;;;;;;;6.10;2.40;;;;;;;28.12;38.17;98295.81;7005633;28;20248;-80
2022/09/13 08:41:00;;;;;;;2.07;1.87;;;;;;;28.50;36.57;98278.09;7009010;28;20209;-80
2022/09/13 08:44:26;;;;;;;1.63;1.53;;;;;;;28.51;36.82;98290.00;7010211;28;20205;-80
2022/09/13 08:47:51;;;;;;;1.77;1.47;;;;;;;28.28;37.22;98286.63;7004123;28;20228;-80
2022/09/13 08:51:24;;;;;;;2.37;1.53;;;;;;;28.42;36.42;98278.16;7003739;28;20824;-81
2022/09/13 08:54:48;;;;;;;4.37;1.70;;;;;;;28.85;36.13;98289.81;7004221;28;20358;-80
2022/09/13 08:58:30;;;;;;;1.53;1.43;;;;;;;28.98;35.62;98278.50;7026345;28;20253;-80
2022/09/13 09:02:01;;;;;;;3.43;1.70;;;;;;;29.18;36.02;98269.34;7032617;28;20331;-80
2022/09/13 09:05:25;;;;;;;3.97;1.80;;;;;;;29.76;34.51;98274.75;7032068;28;20193;-80
2022/09/13 09:08:49;;;;;;;2.00;1.60;;;;;;;30.07;33.74;98272.28;7031912;28;20298;-79
2022/09/13 09:12:17;;;;;;;3.23;1.80;;;;;;;29.63;35.02;98275.88;7032517;28;20277;-79
2022/09/13 09:15:41;;;;;;;2.10;1.50;;;;;;;30.28;33.18;98267.50;7032482;28;20325;-79
2022/09/13 09:19:10;;;;;;;1.57;1.47;;;;;;;30.41;32.83;98252.44;7031426;28;20804;-79
2022/09/13 09:22:34;;;;;;;1.70;1.60;;;;;;;30.61;33.01;98247.94;7032468;28;20255;-79
2022/09/13 09:26:00;;;;;;;2.80;1.70;;;;;;;29.12;34.43;98254.06;7031537;28;20770;-79
2022/09/13 09:29:26;;;;;;;3.40;2.40;;;;;;;29.45;34.81;98263.25;7031301;28;20650;-78
2022/09/13 09:33:00;;;;;;;2.80;2.07;;;;;;;28.84;36.45;98260.44;7016901;28;20808;-79
2022/09/13 09:36:28;;;;;;;5.23;3.97;;;;;;;29.82;34.88;98278.13;7004330;28;20314;-78
2022/09/13 09:39:50;;;;;;;4.37;3.43;;;;;;;29.66;35.43;98264.06;7003068;28;20195;-79
2022/09/13 09:43:15;;;;;;;11.63;6.80;;;;;;;28.72;37.52;98268.69;7003857;28;20207;-79
2022/09/13 09:46:40;;;;;;;2.33;1.90;;;;;;;28.48;37.45;98268.50;7003399;28;20230;-80
2022/09/13 09:50:11;;;;;;;4.20;2.20;;;;;;;28.83;36.61;98261.59;7010960;28;20277;-79
2022/09/13 09:53:34;;;;;;;4.13;1.90;;;;;;;28.17;37.41;98245.72;7008579;28;20223;-79
2022/09/13 09:56:56;;;;;;;2.10;1.90;;;;;;;28.53;37.37;98266.31;7009070;28;20269;-79
2022/09/13 10:00:19;;;;;;;2.30;2.00;;;;;;;28.40;37.37;98272.91;7009685;28;20231;-83
2022/09/13 10:03:42;;;;;;;2.17;1.97;;;;;;;27.57;38.70;98273.59;7030720;28;20242;-79
2022/09/13 10:07:17;;;;;;;3.63;2.00;;;;;;;27.80;39.38;98268.69;7030949;28;20240;-80
2022/09/13 10:10:41;;;;;;;2.03;1.93;;;;;;;28.60;37.68;98274.13;7019761;28;20198;-81
2022/09/13 10:14:04;;;;;;;3.27;1.77;;;;;;;29.13;35.76;98271.53;7031591;28;20233;-80
2022/09/13 10:17:26;;;;;;;2.97;1.70;;;;;;;28.61;35.71;98284.06;7027952;28;20255;-80
2022/09/13 10:21:02;;;;;;;7.30;2.10;;;;;;;29.62;35.16;98282.59;7024550;28;20662;-79
2022/09/13 10:24:23;;;;;;;2.00;1.60;;;;;;;29.74;34.76;98263.19;7020567;28;20690;-79
2022/09/13 10:27:49;;;;;;;2.83;2.50;;;;;;;30.56;34.20;98275.97;7003615;28;20223;-80
2022/09/13 10:31:12;;;;;;;2.67;1.80;;;;;;;30.21;33.62;98286.75;7005755;28;20244;-80
2022/09/13 10:34:35;;;;;;;1.70;1.60;;;;;;;30.76;33.36;98272.28;7018497;28;20207;-79
2022/09/13 10:37:58;;;;;;;1.93;1.70;;;;;;;31.77;31.63;98260.72;7029738;28;20273;-80
2022/09/13 10:41:21;;;;;;;2.53;1.53;;;;;;;31.21;31.46;98276.56;7009050;28;20867;-79
2022/09/13 10:44:45;;;;;;;1.80;1.70;;;;;;;32.01;30.18;98249.44;7002336;28;21262;-81
2022/09/13 10:48:10;;;;;;;3.10;1.50;;;;;;;31.31;31.04;98244.63;7011909;28;20292;-79
2022/09/13 10:51:35;;;;;;;3.50;1.80;;;;;;;30.89;31.43;98248.88;7003148;28;20307;-79
2022/09/13 10:55:26;;;;;;;1.53;1.43;;;;;;;32.06;29.09;98222.09;7008465;28;20215;-79
2022/09/13 10:58:48;;;;;;;4.73;1.57;;;;;;;32.28;28.20;98234.63;7008273;28;20195;-79
2022/09/13 11:02:37;;;;;;;3.50;1.47;;;;;;;32.82;28.03;98232.78;7018518;28;20187;-80
2022/09/13 11:06:04;;;;;;;1.50;1.40;;;;;;;33.26;27.24;98242.59;7003872;28;20314;-80
2022/09/13 11:09:30;;;;;;;1.97;1.57;;;;;;;33.42;26.91;98238.59;7003201;28;20274;-79
2022/09/13 11:12:57;;;;;;;1.50;1.40;;;;;;;32.68;28.00;98238.03;7008763;28;20276;-79
2022/09/13 11:16:29;;;;;;;1.97;1.27;;;;;;;32.47;27.53;98227.16;7024258;28;20221;-79
2022/09/13 11:20:03;;;;;;;2.37;1.50;;;;;;;32.09;27.92;98231.72;7019685;28;20215;-79
2022/09/13 11:23:38;;;;;;;1.30;1.23;;;;;;;32.05;28.71;98226.03;7014843;28;20213;-80
2022/09/13 11:27:03;;;;;;;1.53;1.37;;;;;;;31.89;27.79;98207.69;7007675;28;20295;-79
2022/09/13 11:30:27;;;;;;;1.47;1.20;;;;;;;31.64;29.06;98234.84;7006376;28;20211;-80
2022/09/13 11:33:59;;;;;;;1.30;1.20;;;;;;;32.01;28.29;98239.06;7007487;28;20316;-80
2022/09/13 11:37:36;;;;;;;1.77;1.60;;;;;;;32.59;27.68;98229.84;7016070;28;20262;-80
2022/09/13 11:41:01;;;;;;;3.13;1.30;;;;;;;32.39;28.07;98214.19;7036078;28;20198;-80
2022/09/13 11:44:34;;;;;;;2.07;1.40;;;;;;;32.51;27.56;98211.31;7032997;28;20202;-80
2022/09/13 11:48:13;;;;;;;1.60;1.30;;;;;;;32.75;27.92;98222.25;7006727;28;20290;-80
2022/09/13 11:51:44;;;;;;;2.10;1.30;;;;;;;32.52;28.04;98221.28;7007696;28;20310;-80
2022/09/13 11:55:15;;;;;;;2.43;1.43;;;;;;;32.74;27.33;98231.81;7007624;28;20238;-80
2022/09/13 11:58:39;;;;;;;1.87;1.40;;;;;;;32.88;26.46;98242.50;7006042;28;20195;-80
2022/09/13 12:02:05;;;;;;;1.70;1.30;;;;;;;32.53;26.79;98236.88;7023639;28;20244;-79
2022/09/13 12:05:31;;;;;;;1.87;1.40;;;;;;;33.25;25.42;98225.00;7006992;28;20215;-80
2022/09/13 12:08:56;;;;;;;1.90;1.30;;;;;;;32.44;26.06;98218.69;7024647;28;20230;-80
2022/09/13 12:12:20;;;;;;;2.13;1.30;;;;;;;32.50;25.76;98214.47;7034495;28;20327;-80
2022/09/13 12:15:46;;;;;;;1.63;1.23;;;;;;;31.80;27.32;98199.47;7035665;28;20232;-80
2022/09/13 12:19:14;;;;;;;1.97;1.03;;;;;;;32.93;25.10;98203.94;7026348;28;20655;-80
2022/09/13 12:22:38;;;;;;;1.33;1.23;;;;;;;32.98;25.32;98197.25;7006888;28;20217;-80
2022/09/13 12:26:02;;;;;;;1.93;1.07;;;;;;;33.59;24.08;98209.34;7007087;28;20233;-80
2022/09/13 12:29:29;;;;;;;1.43;1.33;;;;;;;33.43;24.19;98206.66;7006900;28;20213;-80
2022/09/13 12:32:51;;;;;;;2.10;1.10;;;;;;;33.21;24.49;98190.59;7008123;28;20699;-80
2022/09/13 12:36:46;;;;;;;2.00;1.10;;;;;;;33.26;24.72;98195.09;7006601;28;20276;-80
2022/09/13 12:40:39;;;;;;;1.40;1.30;;;;;;;33.43;24.58;98189.88;7030870;28;20322;-80
2022/09/13 12:44:26;;;;;;;2.67;1.10;;;;;;;33.49;24.31;98191.19;7034709;28;20274;-80
2022/09/13 12:48:05;;;;;;;1.20;0.90;;;;;;;33.51;23.79;98193.63;7034060;28;20698;-80
2022/09/13 12:51:37;;;;;;;0.93;0.93;;;;;;;33.28;24.31;98179.59;7035474;28;20229;-80
2022/09/13 12:55:26;;;;;;;1.93;1.30;;;;;;;33.79;23.92;98183.81;7030795;28;20211;-80
2022/09/13 12:59:15;;;;;;;2.10;1.00;;;;;;;33.57;23.93;98167.81;7020529;28;20332;-81
2022/09/13 13:02:39;;;;;;;1.17;1.07;;;;;;;34.02;23.22;98164.28;7015813;28;20203;-80
2022/09/13 13:06:08;;;;;;;1.37;1.03;;;;;;;34.39;22.68;98154.94;7013782;28;20242;-80
2022/09/13 13:09:37;;;;;;;1.03;0.93;;;;;;;34.42;22.17;98147.78;7028545;28;20223;-80
2022/09/13 13:13:14;;;;;;;1.33;0.97;;;;;;;34.52;22.26;98138.72;7029479;28;20208;-80
2022/09/13 13:16:37;;;;;;;1.13;1.03;;;;;;;33.03;22.94;98122.38;7020424;28;20236;-80
2022/09/13 13:19:59;;;;;;;1.37;1.00;;;;;;;33.85;23.32;98126.38;7027421;28;20212;-79
2022/09/13 13:23:25;;;;;;;1.20;1.10;;;;;;;34.14;22.93;98108.88;7033858;28;20623;-79
2022/09/13 13:26:48;;;;;;;1.20;1.00;;;;;;;34.05;23.04;98118.72;7033776;28;20228;-80
2022/09/13 13:30:52;;;;;;;0.90;0.90;;;;;;;33.51;24.18;98104.97;7032429;28;20211;-79
2022/09/13 13:34:37;;;;;;;1.73;1.20;;;;;;;33.67;23.11;98110.47;7033061;28;20216;-80
2022/09/13 13:38:32;;;;;;;1.30;1.20;;;;;;;33.18;24.00;98113.09;7030969;28;20301;-80
2022/09/13 13:41:54;;;;;;;1.37;1.10;;;;;;;32.77;24.49;98088.69;7010764;28;20198;-80
2022/09/13 13:45:20;;;;;;;2.07;1.20;;;;;;;33.14;23.73;98106.59;7011252;28;20678;-80
2022/09/13 13:48:42;;;;;;;1.40;1.30;;;;;;;33.30;24.41;98104.56;7017159;28;20630;-80
2022/09/13 13:52:42;;;;;;;2.73;1.87;;;;;;;32.95;23.68;98089.06;7013206;28;20234;-80
2022/09/13 13:56:15;;;;;;;0.80;0.80;;;;;;;33.39;23.27;98087.56;7002514;28;20231;-80
2022/09/13 13:59:46;;;;;;;2.60;1.10;;;;;;;33.72;23.00;98085.78;7083770;27;20544;-79
2022/09/13 14:03:15;;;;;;;1.30;1.20;;;;;;;33.87;22.61;98084.06;7084565;28;20687;-79
2022/09/13 14:06:42;;;;;;;1.30;1.20;;;;;;;32.40;23.63;98078.25;7072067;28;20257;-79
2022/09/13 14:10:07;;;;;;;1.23;1.00;;;;;;;32.63;23.33;98079.97;7054837;28;20692;-80
2022/09/13 14:13:42;;;;;;;1.50;0.90;;;;;;;32.20;23.58;98085.72;7055546;28;20226;-80
2022/09/13 14:17:45;;;;;;;1.03;0.93;;;;;;;32.44;23.64;98070.75;7055181;28;20233;-80
2022/09/13 14:21:19;;;;;;;1.30;1.20;;;;;;;31.74;23.90;98081.03;7055788;28;20246;-80
2022/09/13 14:24:45;;;;;;;1.23;1.13;;;;;;;32.78;22.85;98067.16;7055456;28;20231;-79
2022/09/13 14:28:07;;;;;;;0.70;0.70;;;;;;;33.18;21.69;98067.53;7036296;28;20296;-79
2022/09/13 14:31:28;;;;;;;1.43;1.13;;;;;;;32.85;22.82;98073.69;7026497;28;20206;-79
2022/09/13 14:34:55;;;;;;;0.90;0.90;;;;;;;31.43;24.18;98060.66;7027132;28;20646;-79
2022/09/13 14:38:20;;;;;;;0.90;0.90;;;;;;;31.99;23.91;98071.28;7035589;28;20325;-81
2022/09/13 14:41:41;;;;;;;1.17;1.10;;;;;;;32.34;23.30;98057.38;7031538;28;20288;-80
2022/09/13 14:45:04;;;;;;;0.80;0.80;;;;;;;33.05;22.34;98064.13;7029005;28;20209;-81
2022/09/13 14:48:28;;;;;;;1.30;1.00;;;;;;;33.08;22.69;98073.75;7027927;28;20229;-81
2022/09/13 14:51:54;;;;;;;1.00;1.00;;;;;;;32.81;22.08;98066.41;7031810;28;20775;-80
2022/09/13 14:55:18;;;;;;;0.90;0.90;;;;;;;33.32;21.16;98043.50;7030018;28;20183;-81
2022/09/13 14:58:44;;;;;;;1.27;0.90;;;;;;;33.12;21.56;98055.88;7027035;28;20257;-81
2022/09/13 15:02:06;;;;;;;1.70;1.10;;;;;;;32.45;22.01;98027.72;7046867;28;20262;-81
2022/09/13 15:05:31;;;;;;;1.17;0.93;;;;;;;33.02;22.09;98050.88;7069960;28;20220;-81
2022/09/13 15:08:57;;;;;;;1.03;0.93;;;;;;;33.55;21.93;98049.13;7057690;28;20190;-81
2022/09/13 15:12:24;;;;;;;0.90;0.90;;;;;;;33.57;21.98;98041.97;7039165;28;20254;-81
2022/09/13 15:15:46;;;;;;;1.50;1.10;;;;;;;32.64;21.95;98017.38;7038821;28;20588;-81
2022/09/13 15:19:27;;;;;;;0.90;0.90;;;;;;;33.08;21.71;98018.69;7017178;28;20320;-81
2022/09/13 15:22:49;;;;;;;1.17;1.07;;;;;;;32.43;22.38;98025.28;7009737;28;20679;-81
2022/09/13 15:26:19;;;;;;;1.23;1.13;;;;;;;32.57;21.96;98010.81;7009295;28;20235;-81
2022/09/13 15:29:40;;;;;;;1.43;1.30;;;;;;;32.63;22.37;98018.56;7026930;28;20250;-81
2022/09/13 15:33:23;;;;;;;1.23;1.13;;;;;;;32.06;23.57;98007.28;7036347;28;20300;-80
2022/09/13 15:36:45;;;;;;;2.50;1.20;;;;;;;32.35;24.56;97992.84;7035639;28;20783;-81
2022/09/13 15:40:21;;;;;;;3.47;1.40;;;;;;;32.48;24.80;97994.31;7035375;28;20303;-81
2022/09/13 15:43:44;;;;;;;11.40;7.40;;;;;;;32.24;25.87;97994.56;7037179;28;20193;-81
2022/09/13 15:47:09;;;;;;;14.30;11.67;;;;;;;32.22;26.21;97994.13;7036983;28;20362;-82
2022/09/13 15:50:33;;;;;;;4.80;4.13;;;;;;;32.32;26.84;97999.13;7014212;28;20284;-81
2022/09/13 15:53:54;;;;;;;1.90;1.80;;;;;;;32.48;25.93;97988.72;7011208;28;20216;-81
2022/09/13 15:57:18;;;;;;;4.33;2.57;;;;;;;32.09;26.98;97969.50;7020701;28;20236;-80
2022/09/13 16:00:41;;;;;;;1.93;1.50;;;;;;;31.82;26.45;97976.03;7032780;28;20204;-80
2022/09/13 16:04:05;;;;;;;1.40;1.30;;;;;;;32.06;26.68;97973.00;7036695;28;20212;-81
2022/09/13 16:07:26;;;;;;;1.30;1.10;;;;;;;32.06;27.43;97950.69;7036809;28;20226;-79
2022/09/13 16:10:48;;;;;;;2.73;1.10;;;;;;;32.02;29.66;97939.44;7033275;28;20283;-81
2022/09/13 16:14:09;;;;;;;3.43;1.20;;;;;;;31.97;31.93;97962.03;7036497;28;20352;-80